Time;durP1;ratioP1;P1;durP2;ratioP2;P2;SDS_P1;SDS_P2;PMS_P1;PMS_P2;Temp;Humidity;BMP_temperature;BMP_pressure;BME280_temperature;BME280_humidity;BME280_pressure;Samples;Min_cycle;Max_cycle;Signal;HPM_P1;HPM_P2
2021/09/05 00:00:21;;;;;;;26.55;17.40;;;16.10;99.90;;;;;;2085500;28;20527;-70
2021/09/05 00:01:22;;;;;;;18.38;16.27;;;16.10;99.90;;;;;;2088332;28;20024;-70
2021/09/05 00:02:22;;;;;;;19.52;16.77;;;16.10;99.90;;;;;;2088874;28;20072;-69
2021/09/05 00:03:23;;;;;;;22.55;16.73;;;16.10;99.90;;;;;;2086300;28;20145;-70
2021/09/05 00:04:24;;;;;;;25.23;18.70;;;16.10;99.90;;;;;;2086116;28;20127;-70
2021/09/05 00:05:24;;;;;;;20.25;17.63;;;16.10;99.90;;;;;;2080568;28;20405;-70
2021/09/05 00:06:25;;;;;;;21.52;17.00;;;16.10;99.90;;;;;;2080372;28;20026;-70
2021/09/05 00:07:25;;;;;;;22.83;16.80;;;16.10;99.90;;;;;;2081161;28;20097;-70
2021/09/05 00:08:26;;;;;;;20.60;16.88;;;16.00;99.90;;;;;;2081926;28;20025;-70
2021/09/05 00:09:26;;;;;;;21.50;16.75;;;16.10;99.90;;;;;;2085441;28;20033;-70
2021/09/05 00:10:27;;;;;;;22.13;16.50;;;16.00;99.90;;;;;;2080985;28;20025;-70
2021/09/05 00:11:28;;;;;;;23.42;17.30;;;16.00;99.90;;;;;;2086706;28;20040;-69
2021/09/05 00:12:28;;;;;;;23.38;17.70;;;16.00;99.90;;;;;;2088365;28;20116;-71
2021/09/05 00:13:29;;;;;;;21.45;17.27;;;16.00;99.90;;;;;;2088413;28;20368;-70
2021/09/05 00:14:30;;;;;;;22.70;17.65;;;16.00;99.90;;;;;;2088906;28;20035;-70
2021/09/05 00:15:31;;;;;;;22.30;17.88;;;16.00;99.90;;;;;;2082390;28;20037;-70
2021/09/05 00:16:31;;;;;;;21.17;16.80;;;16.00;99.90;;;;;;2080869;28;20026;-70
2021/09/05 00:17:32;;;;;;;22.35;17.80;;;16.00;99.90;;;;;;2080575;28;20060;-70
2021/09/05 00:18:33;;;;;;;21.88;17.42;;;16.10;99.90;;;;;;2085238;28;20426;-70
2021/09/05 00:19:33;;;;;;;21.55;17.50;;;16.10;99.90;;;;;;2086096;28;20522;-70
2021/09/05 00:20:34;;;;;;;21.35;17.02;;;16.10;99.90;;;;;;2082643;28;20033;-70
2021/09/05 00:21:34;;;;;;;20.52;17.88;;;16.00;99.90;;;;;;2084703;28;20044;-70
2021/09/05 00:22:35;;;;;;;23.27;17.42;;;16.00;99.90;;;;;;2083188;28;20049;-70
2021/09/05 00:23:36;;;;;;;21.88;17.85;;;16.00;99.90;;;;;;2086406;28;20033;-70
2021/09/05 00:24:36;;;;;;;21.10;17.48;;;16.00;99.90;;;;;;2080632;28;20108;-69
2021/09/05 00:25:37;;;;;;;21.10;17.63;;;16.00;99.90;;;;;;2080554;28;20029;-69
2021/09/05 00:26:38;;;;;;;23.40;17.63;;;16.00;99.90;;;;;;2080498;28;20030;-70
2021/09/05 00:27:39;;;;;;;19.80;16.83;;;16.00;99.90;;;;;;2080128;28;20033;-69
2021/09/05 00:28:39;;;;;;;21.40;18.00;;;16.00;99.90;;;;;;2080704;28;20509;-70
2021/09/05 00:29:40;;;;;;;21.63;17.50;;;16.00;99.90;;;;;;2084808;28;20038;-70
2021/09/05 00:30:40;;;;;;;23.75;16.50;;;16.00;99.90;;;;;;2083697;28;20029;-69
2021/09/05 00:31:41;;;;;;;21.80;16.80;;;16.00;99.90;;;;;;2090374;28;20029;-70
2021/09/05 00:32:41;;;;;;;22.15;16.52;;;16.10;99.90;;;;;;2096033;28;20066;-70
2021/09/05 00:33:42;;;;;;;23.48;16.40;;;16.00;99.90;;;;;;2087411;28;20044;-69
2021/09/05 00:34:42;;;;;;;20.38;16.38;;;16.00;99.90;;;;;;2085481;28;20036;-70
2021/09/05 00:35:43;;;;;;;20.80;17.13;;;16.00;99.90;;;;;;2080066;28;20347;-70
2021/09/05 00:36:43;;;;;;;21.10;16.88;;;16.00;99.90;;;;;;2085649;28;20029;-70
2021/09/05 00:37:44;;;;;;;20.70;17.17;;;16.00;99.90;;;;;;2080457;28;20644;-70
2021/09/05 00:38:44;;;;;;;23.30;17.33;;;16.00;99.90;;;;;;2081836;28;20017;-70
2021/09/05 00:39:45;;;;;;;19.60;16.27;;;16.00;99.90;;;;;;2083464;28;20048;-70
2021/09/05 00:40:46;;;;;;;19.85;16.20;;;16.00;99.90;;;;;;2085273;28;20464;-69
2021/09/05 00:41:47;;;;;;;20.83;18.02;;;16.00;99.90;;;;;;2080270;28;20060;-70
2021/09/05 00:42:47;;;;;;;22.23;17.92;;;16.00;99.90;;;;;;2088581;28;20029;-70
2021/09/05 00:43:56;;;;;;;18.60;16.17;;;16.00;99.90;;;;;;2082222;28;20026;-70
2021/09/05 00:44:57;;;;;;;20.73;16.63;;;16.00;99.90;;;;;;2081561;28;20768;-70
2021/09/05 00:45:57;;;;;;;22.52;17.90;;;16.00;99.90;;;;;;2086231;28;20353;-70
2021/09/05 00:46:58;;;;;;;21.58;16.80;;;16.00;99.90;;;;;;2083086;28;20038;-70
2021/09/05 00:48:00;;;;;;;21.85;16.95;;;16.00;99.90;;;;;;2079631;28;20676;-70
2021/09/05 00:49:01;;;;;;;23.20;18.10;;;16.00;99.90;;;;;;2079770;28;20519;-70
2021/09/05 00:50:03;;;;;;;19.10;16.70;;;16.00;99.90;;;;;;2080242;28;20075;-70
2021/09/05 00:51:03;;;;;;;21.63;17.52;;;16.00;99.90;;;;;;2087240;28;20021;-70
2021/09/05 00:52:04;;;;;;;19.50;16.38;;;15.90;99.90;;;;;;2080862;28;20520;-69
2021/09/05 00:53:06;;;;;;;18.80;15.65;;;15.90;99.90;;;;;;2081244;28;20033;-70
2021/09/05 00:54:09;;;;;;;20.52;15.98;;;15.90;99.90;;;;;;2088655;28;20033;-70
2021/09/05 00:55:10;;;;;;;21.50;16.50;;;15.90;99.90;;;;;;2082084;28;20029;-70
2021/09/05 00:56:11;;;;;;;17.35;15.43;;;15.90;99.90;;;;;;2081625;28;20025;-69
2021/09/05 00:57:14;;;;;;;18.65;15.00;;;15.90;99.90;;;;;;2080196;28;20024;-69
2021/09/05 00:58:15;;;;;;;19.75;15.88;;;15.90;99.90;;;;;;2083255;28;20070;-70
2021/09/05 00:59:21;;;;;;;22.85;18.25;;;15.90;99.90;;;;;;2088309;28;20162;-70
2021/09/05 01:00:24;;;;;;;18.20;16.25;;;15.90;99.90;;;;;;2080845;28;20044;-69
2021/09/05 01:01:25;;;;;;;22.92;16.65;;;15.90;99.90;;;;;;2083351;28;20025;-70
2021/09/05 01:02:26;;;;;;;21.48;16.83;;;15.90;99.90;;;;;;2088551;28;20020;-70
2021/09/05 01:03:27;;;;;;;23.77;17.75;;;15.90;99.90;;;;;;2084974;28;20381;-70
2021/09/05 01:04:27;;;;;;;20.80;17.23;;;15.90;99.90;;;;;;2085741;28;20116;-70
2021/09/05 01:05:28;;;;;;;22.42;17.30;;;15.80;99.90;;;;;;2086269;28;20426;-70
2021/09/05 01:06:29;;;;;;;21.33;17.75;;;15.90;99.90;;;;;;2082682;28;20034;-70
2021/09/05 01:07:31;;;;;;;21.50;16.05;;;15.90;99.90;;;;;;2080367;28;20110;-70
2021/09/05 01:08:31;;;;;;;24.55;17.85;;;15.80;99.90;;;;;;2076371;28;20644;-70
2021/09/05 01:09:32;;;;;;;20.17;17.38;;;15.80;99.90;;;;;;2082902;28;20377;-70
2021/09/05 01:10:33;;;;;;;22.40;18.33;;;15.80;99.90;;;;;;2080182;28;20042;-70
2021/09/05 01:11:35;;;;;;;17.80;15.88;;;15.80;99.90;;;;;;2086866;28;20604;-70
2021/09/05 01:12:36;;;;;;;21.75;17.55;;;15.80;99.90;;;;;;2086017;28;20041;-69
2021/09/05 01:13:37;;;;;;;19.73;15.57;;;15.80;99.90;;;;;;2088662;28;20542;-70
2021/09/05 01:14:37;;;;;;;17.98;14.52;;;15.80;99.90;;;;;;2081994;28;20037;-69
2021/09/05 01:15:38;;;;;;;19.70;16.05;;;15.80;99.90;;;;;;2080094;28;20053;-70
2021/09/05 01:16:43;;;;;;;15.93;14.32;;;15.80;99.90;;;;;;2084080;28;20025;-70
2021/09/05 01:17:43;;;;;;;20.17;15.70;;;15.80;99.90;;;;;;2083115;28;20021;-70
2021/09/05 01:18:44;;;;;;;18.38;15.65;;;15.80;99.90;;;;;;2080173;28;20108;-70
2021/09/05 01:19:44;;;;;;;20.58;16.52;;;15.70;99.90;;;;;;2080083;28;20025;-70
2021/09/05 01:20:45;;;;;;;21.95;18.33;;;15.70;99.90;;;;;;2079930;28;20112;-70
2021/09/05 01:21:47;;;;;;;18.50;16.35;;;15.70;99.90;;;;;;2079341;28;20030;-70
2021/09/05 01:22:47;;;;;;;21.05;15.90;;;15.70;99.90;;;;;;2084281;28;20080;-70
2021/09/05 01:23:48;;;;;;;18.95;16.77;;;15.70;99.90;;;;;;2086649;28;20025;-69
2021/09/05 01:24:49;;;;;;;19.58;14.90;;;15.70;99.90;;;;;;2080273;28;20139;-69
2021/09/05 01:25:49;;;;;;;20.27;15.82;;;15.70;99.90;;;;;;2083091;28;20099;-70
2021/09/05 01:26:52;;;;;;;20.83;16.15;;;15.70;99.90;;;;;;2088257;28;20025;-70
2021/09/05 01:27:53;;;;;;;22.30;16.92;;;15.70;99.90;;;;;;2080045;28;20367;-70
2021/09/05 01:28:53;;;;;;;22.42;16.58;;;15.70;99.90;;;;;;2080018;28;20103;-69
2021/09/05 01:29:54;;;;;;;19.65;15.85;;;15.70;99.90;;;;;;2079835;28;20386;-70
2021/09/05 01:30:54;;;;;;;18.33;14.77;;;15.70;99.90;;;;;;2084320;28;20083;-69
2021/09/05 01:31:56;;;;;;;16.13;14.35;;;15.60;99.90;;;;;;2082837;28;20033;-70
2021/09/05 01:32:56;;;;;;;18.42;14.70;;;15.60;99.90;;;;;;2079856;28;20032;-70
2021/09/05 01:33:57;;;;;;;19.73;17.13;;;15.60;99.90;;;;;;2079484;28;20028;-70
2021/09/05 01:34:58;;;;;;;17.20;14.70;;;15.60;99.90;;;;;;2080371;28;20079;-70
2021/09/05 01:35:59;;;;;;;16.58;14.80;;;15.60;99.90;;;;;;2079867;28;20025;-70
2021/09/05 01:37:00;;;;;;;18.05;16.10;;;15.60;99.90;;;;;;2083752;28;20370;-70
2021/09/05 01:38:01;;;;;;;18.52;16.60;;;15.50;99.90;;;;;;2081409;28;20075;-70
2021/09/05 01:39:01;;;;;;;18.85;15.95;;;15.50;99.90;;;;;;2078975;28;20096;-69
2021/09/05 01:40:02;;;;;;;19.95;16.15;;;15.50;99.90;;;;;;2079188;28;20470;-69
2021/09/05 01:41:03;;;;;;;15.55;13.95;;;15.50;99.90;;;;;;2080250;28;20112;-70
2021/09/05 01:42:04;;;;;;;17.98;15.32;;;15.50;99.90;;;;;;2084248;28;20049;-69
2021/09/05 01:43:04;;;;;;;18.05;16.15;;;15.50;99.90;;;;;;2086176;28;20013;-69
2021/09/05 01:44:10;;;;;;;20.10;17.00;;;15.50;99.90;;;;;;2083577;28;20059;-70
2021/09/05 01:45:11;;;;;;;18.90;16.23;;;15.40;99.90;;;;;;2084090;28;20021;-69
2021/09/05 01:46:11;;;;;;;18.23;16.40;;;15.40;99.90;;;;;;2081437;28;20037;-69
2021/09/05 01:47:12;;;;;;;17.85;15.88;;;15.40;99.90;;;;;;2080607;28;20053;-70
2021/09/05 01:48:13;;;;;;;19.52;15.27;;;15.40;99.90;;;;;;2079549;28;20115;-69
2021/09/05 01:49:13;;;;;;;20.45;16.30;;;15.40;99.90;;;;;;2079785;28;20032;-69
2021/09/05 01:50:14;;;;;;;15.38;13.80;;;15.40;99.90;;;;;;2080492;28;20029;-69
2021/09/05 01:51:15;;;;;;;18.15;15.13;;;15.40;99.90;;;;;;2081403;28;20557;-69
2021/09/05 01:52:15;;;;;;;17.30;15.43;;;15.30;99.90;;;;;;2079568;28;20038;-70
2021/09/05 01:53:16;;;;;;;19.33;16.50;;;15.40;99.90;;;;;;2079696;28;20025;-70
2021/09/05 01:54:16;;;;;;;18.67;15.85;;;15.30;99.90;;;;;;2079753;28;20040;-70
2021/09/05 01:55:17;;;;;;;20.20;15.32;;;15.30;99.90;;;;;;2079687;28;20462;-70
2021/09/05 01:56:18;;;;;;;20.88;17.38;;;15.30;99.90;;;;;;2082030;28;20021;-69
2021/09/05 01:57:18;;;;;;;21.63;16.48;;;15.30;99.90;;;;;;2088169;28;20028;-69
2021/09/05 01:58:19;;;;;;;20.98;16.50;;;15.30;99.90;;;;;;2084257;28;20061;-69
2021/09/05 01:59:19;;;;;;;22.75;15.40;;;15.20;99.90;;;;;;2084938;28;20393;-70
2021/09/05 02:00:20;;;;;;;20.55;16.10;;;15.20;99.90;;;;;;2080094;28;20025;-70
2021/09/05 02:01:20;;;;;;;18.95;16.60;;;15.20;99.90;;;;;;2081188;28;20021;-69
2021/09/05 02:02:21;;;;;;;22.13;16.20;;;15.30;99.90;;;;;;2087948;28;20487;-69
2021/09/05 02:03:21;;;;;;;21.65;17.02;;;15.20;99.90;;;;;;2083039;28;20036;-70
2021/09/05 02:04:22;;;;;;;21.60;17.02;;;15.30;99.90;;;;;;2079705;28;20420;-70
2021/09/05 02:05:22;;;;;;;20.73;16.70;;;15.20;99.90;;;;;;2080111;28;20021;-69
2021/09/05 02:06:23;;;;;;;18.95;17.00;;;15.20;99.90;;;;;;2079685;28;20064;-70
2021/09/05 02:07:23;;;;;;;20.30;18.00;;;15.20;99.90;;;;;;2079559;28;20433;-69
2021/09/05 02:08:24;;;;;;;19.52;16.80;;;15.20;99.90;;;;;;2080405;28;20018;-69
2021/09/05 02:09:25;;;;;;;21.45;17.02;;;15.20;99.90;;;;;;2079577;28;20120;-69
2021/09/05 02:10:25;;;;;;;22.17;17.42;;;15.20;99.90;;;;;;2080220;28;20021;-69
2021/09/05 02:11:26;;;;;;;19.45;17.20;;;15.20;99.90;;;;;;2080412;28;20025;-69
2021/09/05 02:12:27;;;;;;;17.23;15.00;;;15.10;99.90;;;;;;2087296;28;20021;-69
2021/09/05 02:13:27;;;;;;;21.40;17.75;;;15.10;99.90;;;;;;2085660;28;20055;-69
2021/09/05 02:14:28;;;;;;;21.65;16.63;;;15.10;99.90;;;;;;2079965;28;20481;-70
2021/09/05 02:15:28;;;;;;;19.23;16.35;;;15.10;99.90;;;;;;2079596;28;20492;-70
2021/09/05 02:16:29;;;;;;;18.73;14.48;;;15.10;99.90;;;;;;2086020;28;20056;-69
2021/09/05 02:17:30;;;;;;;23.77;17.60;;;15.10;99.90;;;;;;2084739;28;20053;-70
2021/09/05 02:18:31;;;;;;;22.27;17.00;;;15.10;99.90;;;;;;2081662;28;20072;-70
2021/09/05 02:19:33;;;;;;;19.75;16.17;;;15.10;99.90;;;;;;2085834;28;20100;-69
2021/09/05 02:20:34;;;;;;;16.25;14.60;;;15.10;99.90;;;;;;2086374;28;20041;-69
2021/09/05 02:21:34;;;;;;;17.75;15.85;;;15.00;99.90;;;;;;2081232;28;20025;-69
2021/09/05 02:22:35;;;;;;;18.85;15.55;;;15.00;99.90;;;;;;2081809;28;20025;-69
2021/09/05 02:23:35;;;;;;;18.40;15.75;;;15.00;99.90;;;;;;2079071;28;20032;-69
2021/09/05 02:24:36;;;;;;;17.88;15.65;;;15.00;99.90;;;;;;2079574;28;20484;-70
2021/09/05 02:25:36;;;;;;;17.98;15.52;;;15.10;99.90;;;;;;2079627;28;20053;-69
2021/09/05 02:26:37;;;;;;;21.13;16.17;;;15.00;99.90;;;;;;2081958;28;20055;-69
2021/09/05 02:27:38;;;;;;;20.45;16.13;;;15.00;99.90;;;;;;2081663;28;20036;-69
2021/09/05 02:28:38;;;;;;;16.88;14.70;;;15.00;99.90;;;;;;2079604;28;20068;-70
2021/09/05 02:29:39;;;;;;;17.83;15.45;;;15.00;99.90;;;;;;2080789;28;20049;-69
2021/09/05 02:30:39;;;;;;;18.70;16.35;;;15.00;99.90;;;;;;2083403;28;21118;-70
2021/09/05 02:31:40;;;;;;;20.50;15.52;;;15.00;99.90;;;;;;2079578;28;20037;-70
2021/09/05 02:32:41;;;;;;;21.52;17.92;;;15.00;99.90;;;;;;2079044;28;20029;-70
2021/09/05 02:33:41;;;;;;;18.63;16.48;;;15.00;99.90;;;;;;2079367;28;20124;-70
2021/09/05 02:34:42;;;;;;;22.38;17.75;;;15.00;99.90;;;;;;2081022;28;20033;-69
2021/09/05 02:35:42;;;;;;;19.35;15.52;;;14.90;99.90;;;;;;2081925;28;20034;-70
2021/09/05 02:36:43;;;;;;;22.00;18.27;;;15.00;99.90;;;;;;2081370;28;20017;-70
2021/09/05 02:37:44;;;;;;;21.67;16.75;;;14.90;99.90;;;;;;2079954;28;20149;-70
2021/09/05 02:38:45;;;;;;;17.95;15.57;;;14.90;99.90;;;;;;2078928;28;20021;-69
2021/09/05 02:39:45;;;;;;;17.88;15.27;;;14.90;99.90;;;;;;2079346;28;20037;-69
2021/09/05 02:40:46;;;;;;;18.98;16.50;;;14.90;99.90;;;;;;2079610;28;20501;-69
2021/09/05 02:41:46;;;;;;;19.33;17.02;;;14.90;99.90;;;;;;2082331;28;20021;-70
2021/09/05 02:42:47;;;;;;;20.27;18.15;;;14.90;99.90;;;;;;2079475;28;20037;-70
2021/09/05 02:43:47;;;;;;;21.60;17.50;;;14.90;99.90;;;;;;2081712;28;20462;-69
2021/09/05 02:44:48;;;;;;;23.58;16.80;;;14.90;99.90;;;;;;2079406;28;20105;-69
2021/09/05 02:45:48;;;;;;;20.08;17.65;;;14.90;99.90;;;;;;2079933;28;20036;-70
2021/09/05 02:46:49;;;;;;;19.10;17.08;;;14.80;99.90;;;;;;2081520;28;20034;-69
2021/09/05 02:47:49;;;;;;;17.50;15.68;;;14.80;99.90;;;;;;2079846;28;20026;-69
2021/09/05 02:48:50;;;;;;;18.08;15.95;;;14.80;99.90;;;;;;2079711;28;20025;-69
2021/09/05 02:49:50;;;;;;;18.85;16.52;;;14.80;99.90;;;;;;2079704;28;20200;-69
2021/09/05 02:50:51;;;;;;;16.95;15.15;;;14.80;99.90;;;;;;2079638;28;20025;-69
2021/09/05 02:51:52;;;;;;;18.60;14.30;;;14.80;99.90;;;;;;2079667;28;20022;-70
2021/09/05 02:52:52;;;;;;;18.65;15.27;;;14.80;99.90;;;;;;2079219;28;20037;-69
2021/09/05 02:53:53;;;;;;;21.58;15.95;;;14.80;99.90;;;;;;2080041;28;20512;-69
2021/09/05 02:54:53;;;;;;;18.98;14.75;;;14.80;99.90;;;;;;2079357;28;20029;-69
2021/09/05 02:55:54;;;;;;;19.23;16.48;;;14.80;99.90;;;;;;2086503;28;20033;-69
2021/09/05 02:56:54;;;;;;;19.42;17.33;;;14.80;99.90;;;;;;2084374;28;20035;-69
2021/09/05 02:57:55;;;;;;;18.35;15.07;;;14.70;99.90;;;;;;2087905;28;20461;-69
2021/09/05 02:58:55;;;;;;;19.48;16.35;;;14.70;99.90;;;;;;2088090;28;20025;-69
2021/09/05 02:59:56;;;;;;;19.98;15.35;;;14.70;99.90;;;;;;2084631;28;20105;-69
2021/09/05 03:00:56;;;;;;;17.45;15.73;;;14.70;99.90;;;;;;2081294;28;20034;-69
2021/09/05 03:01:58;;;;;;;19.23;16.08;;;14.70;99.90;;;;;;2087521;28;20611;-69
2021/09/05 03:02:59;;;;;;;21.33;15.68;;;14.70;99.90;;;;;;2086105;28;20030;-69
2021/09/05 03:03:59;;;;;;;19.17;16.45;;;14.70;99.90;;;;;;2081349;28;20366;-69
2021/09/05 03:05:00;;;;;;;19.48;15.88;;;14.70;99.90;;;;;;2081251;28;20022;-69
2021/09/05 03:06:01;;;;;;;18.38;16.48;;;14.60;99.90;;;;;;2080885;28;20040;-69
2021/09/05 03:07:01;;;;;;;18.92;15.68;;;14.60;99.90;;;;;;2088462;28;20087;-69
2021/09/05 03:08:02;;;;;;;17.77;15.27;;;14.60;99.90;;;;;;2085028;28;20087;-69
2021/09/05 03:09:03;;;;;;;21.38;16.23;;;14.60;99.90;;;;;;2086378;28;20535;-72
2021/09/05 03:10:04;;;;;;;18.95;16.38;;;14.60;99.90;;;;;;2084605;28;20404;-69
2021/09/05 03:11:04;;;;;;;20.15;16.83;;;14.60;99.90;;;;;;2089332;28;20025;-69
2021/09/05 03:12:05;;;;;;;18.58;16.65;;;14.60;99.90;;;;;;2086563;28;20114;-70
2021/09/05 03:13:06;;;;;;;18.02;16.02;;;14.60;99.90;;;;;;2087940;28;20556;-69
2021/09/05 03:14:06;;;;;;;19.27;16.15;;;14.60;99.90;;;;;;2082273;28;20559;-69
2021/09/05 03:15:07;;;;;;;21.73;16.77;;;14.60;99.90;;;;;;2081270;28;20073;-69
2021/09/05 03:16:08;;;;;;;18.80;16.48;;;14.50;99.90;;;;;;2080929;28;20013;-69
2021/09/05 03:17:08;;;;;;;19.10;15.95;;;14.50;99.90;;;;;;2083906;28;20101;-69
2021/09/05 03:18:09;;;;;;;22.77;18.08;;;14.50;99.90;;;;;;2089440;28;20021;-70
2021/09/05 03:19:10;;;;;;;26.02;21.23;;;14.50;99.90;;;;;;2085747;28;20093;-70
2021/09/05 03:20:11;;;;;;;19.15;17.10;;;14.50;99.90;;;;;;2085198;28;20017;-69
2021/09/05 03:21:12;;;;;;;24.40;18.48;;;14.50;99.90;;;;;;2082507;28;20025;-69
2021/09/05 03:22:12;;;;;;;19.30;16.25;;;14.50;99.90;;;;;;2086896;28;20078;-69
2021/09/05 03:23:13;;;;;;;19.20;17.13;;;14.50;99.90;;;;;;2081201;28;20519;-70
2021/09/05 03:24:14;;;;;;;21.65;17.52;;;14.50;99.90;;;;;;2080749;28;20030;-69
2021/09/05 03:25:14;;;;;;;20.02;16.83;;;14.50;99.90;;;;;;2080835;28;20028;-69
2021/09/05 03:26:15;;;;;;;19.40;16.25;;;14.50;99.90;;;;;;2082087;28;20386;-69
2021/09/05 03:27:15;;;;;;;23.60;17.92;;;14.50;99.90;;;;;;2085088;28;20026;-69
2021/09/05 03:28:16;;;;;;;24.95;20.05;;;14.50;99.90;;;;;;2086769;28;20480;-69
2021/09/05 03:29:17;;;;;;;29.05;20.83;;;14.50;99.90;;;;;;2082516;28;20033;-70
2021/09/05 03:30:17;;;;;;;27.88;20.77;;;14.50;99.90;;;;;;2080878;28;20092;-70
2021/09/05 03:31:18;;;;;;;30.50;20.63;;;14.50;99.90;;;;;;2082220;28;20034;-69
2021/09/05 03:32:18;;;;;;;23.15;19.23;;;14.50;99.90;;;;;;2083859;28;20033;-70
2021/09/05 03:33:19;;;;;;;24.60;19.67;;;14.50;99.90;;;;;;2080728;28;20100;-69
2021/09/05 03:34:19;;;;;;;26.52;21.02;;;14.50;99.90;;;;;;2080843;28;20036;-69
2021/09/05 03:35:20;;;;;;;24.42;18.77;;;14.50;99.90;;;;;;2081084;28;20469;-69
2021/09/05 03:36:20;;;;;;;26.70;19.63;;;14.50;99.90;;;;;;2081335;28;20378;-69
2021/09/05 03:37:21;;;;;;;22.92;19.15;;;14.50;99.90;;;;;;2082117;28;20026;-69
2021/09/05 03:38:21;;;;;;;22.85;18.80;;;14.50;99.90;;;;;;2080961;28;20022;-69
2021/09/05 03:39:22;;;;;;;23.75;18.17;;;14.40;99.90;;;;;;2084110;28;20422;-69
2021/09/05 03:40:22;;;;;;;22.90;18.15;;;14.40;99.90;;;;;;2084865;28;20022;-69
2021/09/05 03:41:23;;;;;;;23.20;19.08;;;14.40;99.90;;;;;;2083012;28;20087;-69
2021/09/05 03:42:24;;;;;;;24.10;19.83;;;14.40;99.90;;;;;;2084366;28;20713;-69
2021/09/05 03:43:24;;;;;;;29.88;22.05;;;14.50;99.90;;;;;;2085600;28;20156;-70
2021/09/05 03:44:25;;;;;;;24.73;20.75;;;14.40;99.90;;;;;;2081153;28;20102;-69
2021/09/05 03:45:26;;;;;;;24.25;21.20;;;14.40;99.90;;;;;;2080843;28;20088;-69
2021/09/05 03:46:26;;;;;;;27.98;21.88;;;14.40;99.90;;;;;;2082827;28;20048;-70
2021/09/05 03:47:28;;;;;;;26.55;21.30;;;14.40;99.90;;;;;;2086078;28;20031;-69
2021/09/05 03:48:30;;;;;;;28.20;22.70;;;14.40;99.90;;;;;;2084912;28;20551;-69
2021/09/05 03:49:31;;;;;;;28.85;22.30;;;14.40;99.90;;;;;;2080703;28;20090;-69
2021/09/05 03:50:31;;;;;;;25.88;21.08;;;14.40;99.90;;;;;;2086434;28;20071;-69
2021/09/05 03:51:32;;;;;;;23.67;19.40;;;14.40;99.90;;;;;;2085389;28;20033;-69
2021/09/05 03:52:33;;;;;;;27.40;21.95;;;14.40;99.90;;;;;;2082250;28;20036;-69
2021/09/05 03:53:34;;;;;;;22.08;18.88;;;14.40;99.90;;;;;;2080760;28;20064;-70
2021/09/05 03:54:35;;;;;;;24.95;21.73;;;14.40;99.90;;;;;;2080610;28;20029;-69
2021/09/05 03:55:35;;;;;;;28.23;21.95;;;14.40;99.90;;;;;;2080636;28;20033;-69
2021/09/05 03:56:36;;;;;;;31.33;21.85;;;14.40;99.90;;;;;;2082753;28;20022;-69
2021/09/05 03:57:36;;;;;;;23.98;20.30;;;14.40;99.90;;;;;;2080777;28;20021;-69
2021/09/05 03:58:37;;;;;;;27.45;23.30;;;14.40;99.90;;;;;;2085320;28;20027;-70
2021/09/05 03:59:37;;;;;;;25.60;20.48;;;14.40;99.90;;;;;;2085905;28;21157;-69
2021/09/05 04:00:38;;;;;;;30.33;22.08;;;14.40;99.90;;;;;;2080724;28;20018;-69
2021/09/05 04:01:39;;;;;;;23.63;20.45;;;14.40;99.90;;;;;;2080148;28;20033;-71
2021/09/05 04:02:40;;;;;;;26.75;20.00;;;14.40;99.90;;;;;;2080437;28;20021;-69
2021/09/05 04:03:40;;;;;;;27.17;22.15;;;14.40;99.90;;;;;;2088322;28;20041;-69
2021/09/05 04:04:41;;;;;;;25.00;20.45;;;14.40;99.90;;;;;;2085454;28;20052;-69
2021/09/05 04:05:42;;;;;;;26.42;21.60;;;14.40;99.90;;;;;;2088601;28;20029;-69
2021/09/05 04:06:48;;;;;;;27.02;21.20;;;14.40;99.90;;;;;;2081720;28;20029;-70
2021/09/05 04:08:14;;;;;;;25.02;21.63;;;14.40;99.90;;;;;;2081192;28;20104;-69
2021/09/05 04:10:08;;;;;;;25.40;21.58;;;14.40;99.90;;;;;;2080374;28;20071;-70
2021/09/05 04:10:37;;;;;;;30.83;21.90;;;14.40;99.90;;;;;;2080792;28;20057;-70
2021/09/05 04:11:37;;;;;;;25.35;21.88;;;14.40;99.90;;;;;;2081046;28;20025;-69
2021/09/05 04:12:43;;;;;;;26.35;21.85;;;14.40;99.90;;;;;;2080067;28;20057;-69
2021/09/05 04:13:43;;;;;;;24.70;21.98;;;14.40;99.90;;;;;;2080063;28;20117;-69
2021/09/05 04:14:44;;;;;;;26.17;21.52;;;14.40;99.90;;;;;;2080067;28;20025;-70
2021/09/05 04:15:44;;;;;;;25.58;19.25;;;14.40;99.90;;;;;;2080460;28;20056;-69
2021/09/05 04:16:45;;;;;;;30.65;22.15;;;14.40;99.90;;;;;;2080408;28;20022;-69
2021/09/05 04:17:45;;;;;;;29.20;22.45;;;14.40;99.90;;;;;;2080941;28;20018;-69
2021/09/05 04:18:46;;;;;;;26.02;21.60;;;14.40;99.90;;;;;;2081327;28;20036;-70
2021/09/05 04:19:46;;;;;;;25.42;20.70;;;14.40;99.90;;;;;;2080724;28;20053;-70
2021/09/05 04:20:47;;;;;;;27.33;21.65;;;14.40;99.90;;;;;;2080542;28;20038;-70
2021/09/05 04:21:47;;;;;;;25.25;20.35;;;14.40;99.90;;;;;;2080640;28;20362;-69
2021/09/05 04:22:48;;;;;;;27.15;21.40;;;14.40;99.90;;;;;;2079979;28;20021;-69
2021/09/05 04:23:48;;;;;;;22.80;20.30;;;14.40;99.90;;;;;;2081025;28;20457;-69
2021/09/05 04:24:49;;;;;;;27.05;19.02;;;14.40;99.90;;;;;;2080440;28;20042;-69
2021/09/05 04:25:50;;;;;;;21.70;18.23;;;14.40;99.90;;;;;;2084345;28;20450;-69
2021/09/05 04:26:50;;;;;;;22.48;18.88;;;14.40;99.90;;;;;;2086262;28;20078;-69
2021/09/05 04:27:51;;;;;;;23.65;19.77;;;14.40;99.90;;;;;;2081273;28;20029;-69
2021/09/05 04:28:51;;;;;;;24.45;19.33;;;14.40;99.90;;;;;;2080369;28;20454;-69
2021/09/05 04:29:52;;;;;;;20.23;17.88;;;14.40;99.90;;;;;;2080641;28;20091;-70
2021/09/05 04:30:52;;;;;;;23.33;20.13;;;14.40;99.90;;;;;;2080510;28;20099;-69
2021/09/05 04:31:53;;;;;;;24.58;19.33;;;14.40;99.90;;;;;;2080312;28;20064;-69
2021/09/05 04:32:54;;;;;;;26.92;21.13;;;14.40;99.90;;;;;;2080229;28;20030;-69
2021/09/05 04:33:54;;;;;;;24.70;20.23;;;14.40;99.90;;;;;;2080574;28;20036;-69
2021/09/05 04:34:55;;;;;;;22.10;19.65;;;14.40;99.90;;;;;;2080820;28;20040;-69
2021/09/05 04:35:55;;;;;;;25.80;21.30;;;14.40;99.90;;;;;;2081291;28;20065;-69
2021/09/05 04:36:56;;;;;;;23.80;19.52;;;14.40;99.90;;;;;;2084304;28;20047;-69
2021/09/05 04:37:56;;;;;;;20.48;18.38;;;14.40;99.90;;;;;;2080582;28;20033;-69
2021/09/05 04:38:57;;;;;;;23.48;19.98;;;14.40;99.90;;;;;;2084818;28;20092;-69
2021/09/05 04:39:57;;;;;;;29.35;20.27;;;14.40;99.90;;;;;;2080838;28;20026;-69
2021/09/05 04:40:58;;;;;;;25.05;21.05;;;14.40;99.90;;;;;;2080553;28;20422;-70
2021/09/05 04:41:58;;;;;;;25.65;19.55;;;14.40;99.90;;;;;;2081512;28;20105;-70
2021/09/05 04:42:59;;;;;;;23.70;19.98;;;14.40;99.90;;;;;;2087696;28;20029;-69
2021/09/05 04:44:00;;;;;;;20.90;18.05;;;14.30;99.90;;;;;;2081804;28;20493;-69
2021/09/05 04:45:01;;;;;;;23.98;18.73;;;14.40;99.90;;;;;;2080614;28;20373;-69
2021/09/05 04:46:02;;;;;;;24.90;19.33;;;14.40;99.90;;;;;;2088676;28;20025;-70
2021/09/05 04:47:03;;;;;;;23.55;18.80;;;14.40;99.90;;;;;;2082470;28;20021;-70
2021/09/05 04:48:04;;;;;;;23.05;18.85;;;14.30;99.90;;;;;;2079646;28;20032;-69
2021/09/05 04:49:04;;;;;;;23.58;20.50;;;14.30;99.90;;;;;;2080061;28;20053;-69
2021/09/05 04:50:05;;;;;;;26.25;19.63;;;14.40;99.90;;;;;;2080907;28;20643;-70
2021/09/05 04:51:06;;;;;;;24.65;19.90;;;14.30;99.90;;;;;;2087714;28;20104;-70
2021/09/05 04:52:07;;;;;;;23.33;20.42;;;14.40;99.90;;;;;;2079564;28;20025;-69
2021/09/05 04:53:08;;;;;;;23.10;19.60;;;14.30;99.90;;;;;;2080178;28;20017;-69
2021/09/05 04:54:08;;;;;;;23.48;18.42;;;14.30;99.90;;;;;;2080104;28;20259;-70
2021/09/05 04:55:09;;;;;;;22.20;17.65;;;14.30;99.90;;;;;;2081593;28;20405;-70
2021/09/05 04:56:09;;;;;;;24.05;21.05;;;14.30;99.90;;;;;;2088397;28;20021;-69
2021/09/05 04:57:10;;;;;;;26.48;19.92;;;14.30;99.90;;;;;;2082433;28;20064;-69
2021/09/05 04:58:11;;;;;;;24.35;18.67;;;14.30;99.90;;;;;;2086093;28;20017;-69
2021/09/05 04:59:11;;;;;;;24.23;20.05;;;14.30;99.90;;;;;;2088766;28;20028;-69
2021/09/05 05:00:12;;;;;;;25.27;19.73;;;14.30;99.90;;;;;;2080868;28;20017;-69
2021/09/05 05:01:13;;;;;;;24.45;20.08;;;14.30;99.90;;;;;;2080250;28;20017;-69
2021/09/05 05:02:14;;;;;;;21.67;18.77;;;14.30;99.90;;;;;;2079913;28;20025;-69
2021/09/05 05:03:16;;;;;;;23.10;19.55;;;14.30;99.90;;;;;;2080970;28;20029;-69
2021/09/05 05:04:17;;;;;;;22.52;19.60;;;14.30;99.90;;;;;;2088403;28;20473;-69
2021/09/05 05:05:17;;;;;;;23.73;19.67;;;14.30;99.90;;;;;;2082270;28;21689;-69
2021/09/05 05:06:18;;;;;;;22.15;18.80;;;14.30;99.90;;;;;;2084927;28;20053;-69
2021/09/05 05:07:18;;;;;;;18.17;16.25;;;14.30;99.90;;;;;;2080705;28;20432;-69
2021/09/05 05:08:19;;;;;;;23.88;19.38;;;14.30;99.90;;;;;;2079848;28;20064;-69
2021/09/05 05:09:20;;;;;;;20.20;17.23;;;14.30;99.90;;;;;;2081772;28;20036;-69